Time;durP1;ratioP1;P1;durP2;ratioP2;P2;SDS_P1;SDS_P2;PMS_P1;PMS_P2;Temp;Humidity;BMP_temperature;BMP_pressure;BME280_temperature;BME280_humidity;BME280_pressure;Samples;Min_cycle;Max_cycle;Signal;HPM_P1;HPM_P2
2022/03/08 00:01:46;;;;;;;12.67;7.50;;;;;;;0.27;62.97;102300.97;5015818;28;20338;-36
2022/03/08 00:04:13;;;;;;;11.73;7.60;;;;;;;0.25;62.86;102304.69;4991583;28;20391;-36
2022/03/08 00:06:41;;;;;;;14.60;7.30;;;;;;;0.20;62.89;102293.50;4991167;28;20291;-38
2022/03/08 00:09:07;;;;;;;11.20;7.60;;;;;;;0.21;62.98;102295.19;5016873;28;20284;-35
2022/03/08 00:11:37;;;;;;;12.27;7.60;;;;;;;0.22;62.55;102302.22;5000165;28;20288;-35
2022/03/08 00:14:05;;;;;;;12.53;7.33;;;;;;;0.21;62.56;102301.38;4975031;28;20322;-37
2022/03/08 00:16:34;;;;;;;13.10;7.37;;;;;;;0.22;62.40;102296.88;4999230;28;20303;-35
2022/03/08 00:19:02;;;;;;;11.30;7.03;;;;;;;0.14;62.67;102289.44;5016230;28;20328;-36
2022/03/08 00:21:30;;;;;;;13.23;7.93;;;;;;;0.20;62.23;102291.66;5015433;28;20324;-36
2022/03/08 00:23:56;;;;;;;11.93;7.20;;;;;;;0.19;62.35;102292.66;5016078;28;20318;-36
2022/03/08 00:26:23;;;;;;;14.10;6.97;;;;;;;0.22;61.81;102289.75;4998594;28;20297;-35
2022/03/08 00:28:49;;;;;;;12.87;7.30;;;;;;;0.23;61.93;102287.94;4999073;28;20490;-36
2022/03/08 00:31:16;;;;;;;12.67;7.00;;;;;;;0.20;61.70;102280.16;5016222;28;20292;-37
2022/03/08 00:33:44;;;;;;;11.27;7.20;;;;;;;0.16;62.08;102280.38;4998374;28;20308;-36
2022/03/08 00:36:10;;;;;;;11.93;7.00;;;;;;;0.26;61.25;102277.03;4998986;28;20287;-34
2022/03/08 00:38:36;;;;;;;10.67;6.97;;;;;;;0.27;61.50;102276.09;4998552;28;20635;-37
2022/03/08 00:41:02;;;;;;;11.97;7.23;;;;;;;0.28;61.29;102280.47;5016264;28;20029;-36
2022/03/08 00:43:28;;;;;;;10.83;6.63;;;;;;;0.21;61.46;102265.88;5003336;28;20291;-35
2022/03/08 00:45:56;;;;;;;12.50;7.03;;;;;;;0.24;61.74;102278.97;4980015;28;21020;-37
2022/03/08 00:48:22;;;;;;;12.37;6.83;;;;;;;0.22;61.26;102280.88;4996178;28;20030;-37
2022/03/08 00:50:52;;;;;;;11.53;7.13;;;;;;;0.21;61.77;102287.19;4953603;28;20296;-36
2022/03/08 00:53:20;;;;;;;11.60;7.27;;;;;;;0.14;61.13;102282.28;4980631;28;20069;-37
2022/03/08 00:55:47;;;;;;;11.90;7.10;;;;;;;0.20;61.55;102288.16;4995995;28;20334;-35
2022/03/08 00:58:21;;;;;;;12.30;6.83;;;;;;;0.16;61.53;102291.03;4996756;28;20363;-36
2022/03/08 01:00:48;;;;;;;13.35;6.85;;;;;;;0.14;61.40;102290.28;4996644;28;20699;-34
2022/03/08 01:03:21;;;;;;;11.57;7.07;;;;;;;0.10;61.89;102287.97;4981067;28;20046;-36
2022/03/08 01:05:48;;;;;;;11.33;7.17;;;;;;;0.02;62.07;102291.16;4944831;28;20304;-35
2022/03/08 01:08:14;;;;;;;12.13;7.20;;;;;;;-0.02;61.90;102274.50;4996590;28;20285;-36
2022/03/08 01:10:41;;;;;;;11.23;6.80;;;;;;;-0.01;62.02;102294.03;4994964;28;20316;-35
2022/03/08 01:13:07;;;;;;;12.20;6.80;;;;;;;-0.04;62.61;102291.56;4985396;28;20315;-37
2022/03/08 01:15:36;;;;;;;12.73;7.10;;;;;;;-0.06;62.33;102289.00;4984536;28;21585;-36
2022/03/08 01:18:04;;;;;;;11.23;7.13;;;;;;;-0.06;62.45;102288.16;4994921;28;21081;-37
2022/03/08 01:20:30;;;;;;;10.33;6.10;;;;;;;-0.07;61.93;102286.44;4995568;28;20423;-36
2022/03/08 01:22:57;;;;;;;13.97;6.47;;;;;;;-0.09;61.96;102277.72;4994896;28;20659;-36
2022/03/08 01:25:26;;;;;;;12.10;7.03;;;;;;;-0.09;61.75;102262.59;4995692;28;20800;-35
2022/03/08 01:27:55;;;;;;;12.10;7.27;;;;;;;-0.07;61.78;102265.13;4995084;28;20308;-36
2022/03/08 01:30:24;;;;;;;13.03;6.77;;;;;;;-0.06;61.59;102258.84;4979402;28;20429;-36
2022/03/08 01:32:53;;;;;;;12.23;7.23;;;;;;;-0.05;61.75;102260.56;4994503;28;20288;-37
2022/03/08 01:35:22;;;;;;;13.13;7.03;;;;;;;-0.05;61.81;102257.91;4996132;28;20299;-35
2022/03/08 01:37:52;;;;;;;11.83;6.77;;;;;;;-0.07;61.69;102251.81;4995835;28;20285;-36
2022/03/08 01:40:21;;;;;;;10.53;7.03;;;;;;;-0.08;61.70;102247.44;4999050;28;20289;-37
2022/03/08 01:42:49;;;;;;;11.97;6.87;;;;;;;-0.10;61.77;102244.88;4956051;28;20309;-35
2022/03/08 01:45:25;;;;;;;11.53;7.20;;;;;;;-0.07;61.57;102241.16;4972041;28;20316;-36
2022/03/08 01:47:54;;;;;;;11.63;7.10;;;;;;;-0.07;61.31;102233.16;4999167;28;20351;-35
2022/03/08 01:50:23;;;;;;;10.50;6.67;;;;;;;-0.09;61.64;102235.09;4974825;28;20906;-38
2022/03/08 01:52:49;;;;;;;12.67;7.23;;;;;;;-0.11;61.50;102229.88;4998611;28;20655;-35
2022/03/08 01:55:17;;;;;;;12.57;7.20;;;;;;;-0.08;61.18;102227.00;4999399;28;20307;-35
2022/03/08 01:57:51;;;;;;;10.43;7.03;;;;;;;-0.06;61.14;102226.88;4999493;28;20297;-38
2022/03/08 02:00:24;;;;;;;11.20;6.80;;;;;;;-0.05;60.95;102225.94;4999402;28;20628;-37
2022/03/08 02:02:54;;;;;;;11.82;6.90;;;;;;;-0.04;60.57;102222.28;4998722;28;20147;-35
2022/03/08 02:05:20;;;;;;;9.83;6.83;;;;;;;-0.01;60.79;102228.25;4998080;28;20038;-37
2022/03/08 02:07:47;;;;;;;11.40;7.17;;;;;;;-0.04;60.71;102216.94;4998855;28;20342;-36
2022/03/08 02:10:13;;;;;;;13.37;7.40;;;;;;;-0.08;61.23;102216.34;4999434;28;20038;-34
2022/03/08 02:12:42;;;;;;;11.23;6.87;;;;;;;-0.10;61.20;102215.56;4971697;28;20392;-35
2022/03/08 02:15:25;;;;;;;12.53;7.13;;;;;;;-0.10;61.33;102201.41;4990876;28;20301;-38
2022/03/08 02:17:56;;;;;;;12.97;7.07;;;;;;;-0.08;60.85;102211.00;4992828;28;20296;-36
2022/03/08 02:20:23;;;;;;;11.50;7.70;;;;;;;-0.26;60.96;102185.66;4999004;28;20300;-35
2022/03/08 02:22:51;;;;;;;11.27;7.07;;;;;;;-0.05;60.52;102209.94;4979175;28;20293;-37
2022/03/08 02:25:19;;;;;;;13.80;7.47;;;;;;;-0.05;60.52;102210.78;5014742;28;20312;-35
2022/03/08 02:27:47;;;;;;;11.40;7.60;;;;;;;-0.26;60.77;102183.84;4982327;28;20776;-36
2022/03/08 02:30:16;;;;;;;11.73;7.10;;;;;;;-0.09;60.46;102203.97;4973084;28;20339;-37
2022/03/08 02:32:42;;;;;;;11.23;6.87;;;;;;;-0.09;60.55;102200.47;4969922;28;20903;-35
2022/03/08 02:35:15;;;;;;;12.33;7.20;;;;;;;-0.11;60.74;102194.38;4949331;28;20320;-37
2022/03/08 02:37:47;;;;;;;10.63;7.23;;;;;;;-0.12;60.52;102198.00;4998759;28;20292;-37
2022/03/08 02:40:18;;;;;;;12.70;7.43;;;;;;;-0.14;60.80;102199.94;4972154;28;20332;-37
2022/03/08 02:42:45;;;;;;;11.77;7.20;;;;;;;-0.30;60.81;102174.38;4998640;28;20340;-35
2022/03/08 02:45:16;;;;;;;11.13;7.13;;;;;;;-0.20;60.61;102196.72;4999525;28;20316;-35
2022/03/08 02:47:43;;;;;;;12.03;7.40;;;;;;;-0.23;61.04;102188.97;4964897;28;20307;-36
2022/03/08 02:50:15;;;;;;;11.97;7.10;;;;;;;-0.30;61.27;102179.72;4980413;28;20430;-35
2022/03/08 02:52:46;;;;;;;12.10;7.00;;;;;;;-0.27;61.19;102189.25;4998245;28;20289;-35
2022/03/08 02:55:15;;;;;;;11.33;6.83;;;;;;;-0.29;61.03;102180.56;4981574;28;20433;-34
2022/03/08 02:57:42;;;;;;;10.40;6.93;;;;;;;-0.31;61.09;102170.00;4981221;28;20304;-36
2022/03/08 03:00:12;;;;;;;11.37;7.63;;;;;;;-0.30;61.20;102169.06;4972753;28;20429;-34
2022/03/08 03:02:41;;;;;;;13.27;7.40;;;;;;;-0.33;61.46;102166.59;4981098;28;20657;-37
2022/03/08 03:05:08;;;;;;;12.80;6.83;;;;;;;-0.33;61.53;102163.09;4997980;28;20319;-36
2022/03/08 03:07:34;;;;;;;11.50;7.20;;;;;;;-0.35;61.57;102155.19;4972492;28;20380;-34
2022/03/08 03:10:00;;;;;;;11.80;7.00;;;;;;;-0.35;61.60;102152.53;4959069;28;20850;-35
2022/03/08 03:12:26;;;;;;;12.33;7.43;;;;;;;-0.38;61.49;102152.72;4997416;28;20370;-38
2022/03/08 03:14:52;;;;;;;12.40;7.60;;;;;;;-0.44;61.44;102130.06;4980866;28;20301;-37
2022/03/08 03:17:18;;;;;;;10.47;6.73;;;;;;;-0.37;61.31;102139.34;4956581;28;20088;-35
2022/03/08 03:19:44;;;;;;;11.83;7.70;;;;;;;-0.37;61.50;102130.47;4998042;28;20304;-39
2022/03/08 03:22:13;;;;;;;9.77;6.73;;;;;;;-0.38;61.79;102128.75;4997777;28;20320;-35
2022/03/08 03:24:40;;;;;;;11.40;7.10;;;;;;;-0.53;61.97;102110.25;4980832;28;20297;-34
2022/03/08 03:27:07;;;;;;;11.53;7.00;;;;;;;-0.43;61.96;102130.94;4997902;28;20295;-37
2022/03/08 03:29:33;;;;;;;12.10;8.40;;;;;;;-0.45;61.84;102127.50;4948222;28;20296;-35
2022/03/08 03:32:03;;;;;;;12.87;7.90;;;;;;;-0.58;62.18;102108.88;4996997;28;20288;-35
2022/03/08 03:34:29;;;;;;;12.67;7.30;;;;;;;-0.51;62.10;102118.97;4997888;28;20358;-36
2022/03/08 03:36:55;;;;;;;10.70;7.17;;;;;;;-0.54;62.20;102119.22;4981121;28;20906;-38
2022/03/08 03:39:22;;;;;;;12.00;7.27;;;;;;;-0.50;62.14;102130.50;4997886;28;20041;-35
2022/03/08 03:41:49;;;;;;;12.50;7.97;;;;;;;-0.49;62.14;102131.34;4971734;28;20355;-38
2022/03/08 03:44:17;;;;;;;11.50;7.60;;;;;;;-0.53;62.29;102142.22;4986699;28;20378;-35
2022/03/08 03:46:43;;;;;;;13.77;7.37;;;;;;;-0.53;62.33;102142.22;4968057;28;20297;-36
2022/03/08 03:49:10;;;;;;;11.37;7.50;;;;;;;-0.53;62.50;102142.22;4981902;28;20293;-35
2022/03/08 03:51:37;;;;;;;14.00;8.10;;;;;;;-0.55;62.61;102149.44;4996694;28;20304;-33
2022/03/08 03:54:03;;;;;;;13.50;7.70;;;;;;;-0.53;62.31;102144.00;4984391;28;20289;-37
2022/03/08 03:56:29;;;;;;;12.80;7.77;;;;;;;-0.57;62.37;102143.38;4983331;28;20068;-35
2022/03/08 03:58:55;;;;;;;12.23;7.80;;;;;;;-0.55;62.58;102149.44;4973370;28;21665;-36
2022/03/08 04:01:22;;;;;;;10.57;7.17;;;;;;;-0.56;62.94;102155.75;4996127;28;20825;-37
2022/03/08 04:03:49;;;;;;;11.40;7.73;;;;;;;-0.57;62.32;102143.38;4968079;28;20101;-39
2022/03/08 04:06:17;;;;;;;11.50;7.90;;;;;;;-0.58;62.77;102141.69;4968087;28;20387;-35
2022/03/08 04:08:44;;;;;;;13.53;8.20;;;;;;;-0.62;62.49;102132.22;4950205;28;20453;-36
2022/03/08 04:11:11;;;;;;;13.30;8.10;;;;;;;-0.64;62.80;102138.59;4993373;28;20292;-34
2022/03/08 04:13:37;;;;;;;13.47;7.90;;;;;;;-0.63;62.96;102134.97;4995671;28;20288;-37
2022/03/08 04:16:04;;;;;;;12.73;7.47;;;;;;;-0.66;63.11;102132.53;4996540;28;21800;-35
2022/03/08 04:18:33;;;;;;;12.70;7.70;;;;;;;-0.67;63.07;102129.00;4996745;28;20640;-35
2022/03/08 04:20:59;;;;;;;11.40;7.73;;;;;;;-0.70;62.92;102123.91;4996503;28;20288;-35
2022/03/08 04:23:27;;;;;;;11.13;7.33;;;;;;;-0.64;62.78;102126.16;5010854;28;21057;-35
2022/03/08 04:25:57;;;;;;;11.70;7.63;;;;;;;-0.61;62.72;102125.94;4996142;28;20832;-36
2022/03/08 04:28:24;;;;;;;13.00;8.03;;;;;;;-0.60;62.52;102117.00;4977952;28;20301;-37
2022/03/08 04:30:50;;;;;;;12.37;8.10;;;;;;;-0.60;62.77;102124.09;4995788;28;20464;-37
2022/03/08 04:33:17;;;;;;;14.83;8.23;;;;;;;-0.57;62.59;102119.44;4995531;28;20363;-36
2022/03/08 04:35:45;;;;;;;12.10;7.80;;;;;;;-0.55;62.63;102122.81;4962642;28;20295;-35
2022/03/08 04:38:14;;;;;;;11.63;7.50;;;;;;;-0.63;62.90;102108.34;4995845;28;20778;-36
2022/03/08 04:40:43;;;;;;;11.20;7.50;;;;;;;-0.54;62.56;102121.03;4978012;28;20370;-35
2022/03/08 04:43:09;;;;;;;11.33;7.90;;;;;;;-0.56;62.93;102125.59;4996512;28;20519;-36
2022/03/08 04:45:43;;;;;;;11.37;7.60;;;;;;;-0.66;62.96;102114.75;5001655;28;20325;-34
2022/03/08 04:48:09;;;;;;;14.43;8.50;;;;;;;-0.62;63.18;102126.88;4984452;28;20852;-37
2022/03/08 04:50:36;;;;;;;12.80;7.97;;;;;;;-0.61;62.90;102120.59;4971125;28;20300;-37
2022/03/08 04:53:03;;;;;;;13.03;7.60;;;;;;;-0.64;62.92;102120.81;5001798;28;20117;-34
2022/03/08 04:55:30;;;;;;;11.30;7.80;;;;;;;-0.65;62.88;102118.25;5000732;28;20284;-37
2022/03/08 04:57:55;;;;;;;11.60;7.57;;;;;;;-0.64;63.11;102118.16;5001838;28;20289;-36
2022/03/08 05:00:21;;;;;;;13.20;7.80;;;;;;;-0.65;63.01;102121.78;4953973;28;20772;-35
2022/03/08 05:02:47;;;;;;;13.50;8.20;;;;;;;-0.68;63.53;102116.66;5000799;28;20036;-35
2022/03/08 05:05:14;;;;;;;11.93;7.83;;;;;;;-0.68;63.06;102117.50;5017621;28;20041;-36
2022/03/08 05:07:43;;;;;;;13.50;8.10;;;;;;;-0.71;63.22;102114.19;5001075;28;20293;-34
2022/03/08 05:10:13;;;;;;;11.80;7.57;;;;;;;-0.69;63.13;102122.94;5002540;28;20690;-36
2022/03/08 05:12:40;;;;;;;13.43;8.07;;;;;;;-0.71;63.42;102123.06;5019524;28;22157;-35
2022/03/08 05:15:07;;;;;;;13.30;7.63;;;;;;;-0.72;63.32;102120.47;4988179;28;20383;-37
2022/03/08 05:17:34;;;;;;;12.03;7.90;;;;;;;-0.77;63.69;102112.00;5005006;28;20305;-35
2022/03/08 05:20:03;;;;;;;11.47;8.07;;;;;;;-0.77;63.60;102106.66;4989483;28;20356;-36
2022/03/08 05:22:29;;;;;;;12.57;7.93;;;;;;;-0.77;63.70;102112.00;5005427;28;20323;-35
2022/03/08 05:25:00;;;;;;;12.23;8.43;;;;;;;-0.82;63.72;102106.13;4972928;28;20957;-39
2022/03/08 05:27:26;;;;;;;13.33;7.97;;;;;;;-0.87;63.94;102107.28;5006206;28;20300;-36
2022/03/08 05:29:52;;;;;;;14.13;8.20;;;;;;;-0.90;64.10;102112.84;5005209;28;20300;-37
2022/03/08 05:32:19;;;;;;;12.10;8.00;;;;;;;-0.92;64.22;102112.06;4990482;28;20387;-36
2022/03/08 05:34:46;;;;;;;14.20;8.07;;;;;;;-0.95;64.61;102112.28;4988505;28;20327;-36
2022/03/08 05:37:13;;;;;;;13.10;8.10;;;;;;;-1.00;64.69;102110.91;5004611;28;20421;-37
2022/03/08 05:39:39;;;;;;;13.40;8.37;;;;;;;-1.02;64.65;102103.00;5004042;28;20873;-35
2022/03/08 05:42:05;;;;;;;13.67;8.30;;;;;;;-1.04;65.00;102108.44;5004350;28;20284;-36
2022/03/08 05:44:31;;;;;;;12.00;8.47;;;;;;;-1.03;64.91;102101.31;5012863;28;20315;-34
2022/03/08 05:46:58;;;;;;;14.77;8.10;;;;;;;-1.05;64.65;102108.53;5018224;28;21090;-35
2022/03/08 05:49:28;;;;;;;13.00;8.23;;;;;;;-1.07;65.01;102115.78;5018403;28;20303;-35
2022/03/08 05:51:54;;;;;;;12.73;7.83;;;;;;;-1.10;64.94;102100.91;5018931;28;20292;-36
2022/03/08 05:54:21;;;;;;;13.23;8.47;;;;;;;-1.09;65.23;102107.06;5002476;28;20311;-36
2022/03/08 05:56:47;;;;;;;16.13;8.33;;;;;;;-1.09;65.28;102104.38;5019118;28;20426;-34
2022/03/08 05:59:17;;;;;;;13.73;7.90;;;;;;;-1.12;65.23;102113.44;5001102;28;20298;-35
2022/03/08 06:01:46;;;;;;;14.97;8.47;;;;;;;-1.21;65.35;102098.09;5035078;28;20292;-36
2022/03/08 06:04:15;;;;;;;15.97;8.37;;;;;;;-1.17;65.85;102104.06;5017221;28;20300;-35
2022/03/08 06:06:41;;;;;;;13.33;8.40;;;;;;;-1.23;65.98;102100.84;5001740;28;20656;-35
2022/03/08 06:09:09;;;;;;;14.67;8.77;;;;;;;-1.24;66.23;102104.50;5017639;28;20295;-34
2022/03/08 06:11:36;;;;;;;15.00;9.10;;;;;;;-1.25;66.39;102108.09;5018935;28;20848;-36
2022/03/08 06:14:05;;;;;;;16.40;10.33;;;;;;;-1.33;66.88;102093.59;5018056;28;20679;-36
2022/03/08 06:16:32;;;;;;;17.33;10.90;;;;;;;-1.36;66.81;102092.00;4993339;28;20296;-36
2022/03/08 06:18:58;;;;;;;19.00;13.07;;;;;;;-1.29;66.62;102101.28;5034894;28;20674;-36
2022/03/08 06:21:25;;;;;;;24.17;21.57;;;;;;;-1.40;66.97;102085.19;5018502;28;20295;-35
2022/03/08 06:23:51;;;;;;;21.47;16.90;;;;;;;-1.27;67.08;102109.16;5002753;28;20349;-36
2022/03/08 06:26:22;;;;;;;15.90;10.07;;;;;;;-1.27;66.95;102109.16;5000207;28;20038;-36
2022/03/08 06:28:48;;;;;;;15.67;9.70;;;;;;;-1.29;66.99;102095.97;5016436;28;20433;-36
2022/03/08 06:31:15;;;;;;;15.13;9.43;;;;;;;-1.19;66.80;102107.66;5017719;28;20459;-37
2022/03/08 06:33:41;;;;;;;15.97;9.37;;;;;;;-1.13;66.36;102106.44;5001300;28;20384;-36
2022/03/08 06:36:08;;;;;;;16.00;9.67;;;;;;;-1.08;66.26;102114.09;5001644;28;20287;-38
2022/03/08 06:38:37;;;;;;;17.23;11.77;;;;;;;-1.04;65.84;102102.28;5017434;28;20301;-37
2022/03/08 06:41:05;;;;;;;17.23;9.53;;;;;;;-0.97;65.64;102106.22;4992673;28;20341;-36
2022/03/08 06:43:34;;;;;;;14.10;9.27;;;;;;;-0.91;65.49;102111.13;5016684;28;20308;-36
2022/03/08 06:46:04;;;;;;;15.83;9.90;;;;;;;-0.84;65.21;102111.56;4976821;28;20315;-35
2022/03/08 06:48:34;;;;;;;16.47;9.83;;;;;;;-0.79;65.45;102106.78;5018602;28;20319;-37
2022/03/08 06:51:02;;;;;;;15.37;9.57;;;;;;;-0.75;65.22;102113.59;4979647;28;20346;-37
2022/03/08 06:53:34;;;;;;;14.07;9.37;;;;;;;-0.74;64.72;102093.97;5018641;28;20287;-37
2022/03/08 06:56:02;;;;;;;17.27;9.73;;;;;;;-0.60;64.40;102102.81;5009577;28;20371;-36
2022/03/08 06:58:30;;;;;;;14.83;9.30;;;;;;;-0.57;64.72;102100.78;5011286;28;20652;-37
2022/03/08 07:00:58;;;;;;;14.33;8.93;;;;;;;-0.64;64.19;102088.88;5018961;28;20333;-37
2022/03/08 07:03:25;;;;;;;27.10;21.67;;;;;;;-0.35;63.39;102102.78;5017356;28;20314;-39
2022/03/08 07:06:05;;;;;;;13.93;8.97;;;;;;;-0.18;63.37;102114.91;5018547;28;20303;-37
2022/03/08 07:08:32;;;;;;;12.43;8.70;;;;;;;-0.04;62.74;102103.25;4977684;28;20394;-37
2022/03/08 07:11:00;;;;;;;23.40;9.43;;;;;;;0.12;62.60;102107.44;5018653;28;20291;-37
2022/03/08 07:13:27;;;;;;;14.53;9.17;;;;;;;0.30;61.54;102110.56;4992983;28;20331;-38
2022/03/08 07:15:53;;;;;;;15.00;8.80;;;;;;;0.46;61.56;102103.16;5001622;28;21097;-38
2022/03/08 07:18:19;;;;;;;13.27;8.57;;;;;;;0.59;60.65;102108.41;5010388;28;20304;-36
2022/03/08 07:20:47;;;;;;;13.63;8.67;;;;;;;0.74;60.49;102117.06;5019493;28;20091;-38
2022/03/08 07:23:21;;;;;;;13.70;8.43;;;;;;;0.92;59.48;102119.31;5019904;28;20371;-38
2022/03/08 07:25:55;;;;;;;12.63;8.10;;;;;;;1.11;59.17;102118.75;5005130;28;20310;-39
2022/03/08 07:28:45;;;;;;;12.33;8.33;;;;;;;1.22;58.29;102116.09;5003720;28;20304;-39
2022/03/08 07:31:16;;;;;;;12.57;8.47;;;;;;;1.38;57.48;102113.09;4999001;28;20386;-40
2022/03/08 07:33:44;;;;;;;13.00;8.70;;;;;;;1.58;56.90;102113.31;5020330;28;20582;-38
2022/03/08 07:36:13;;;;;;;14.70;8.30;;;;;;;1.66;56.31;102126.94;4988602;28;20383;-38
2022/03/08 07:38:39;;;;;;;12.80;8.03;;;;;;;1.74;56.46;102111.16;5000198;28;20324;-45
2022/03/08 07:41:06;;;;;;;12.23;8.87;;;;;;;1.92;55.82;102119.50;5010886;28;21317;-41
2022/03/08 07:43:35;;;;;;;13.00;8.27;;;;;;;2.12;55.50;102125.06;4979771;28;20851;-39
2022/03/08 07:46:06;;;;;;;11.77;8.13;;;;;;;2.25;55.75;102119.56;4958998;28;20717;-39
2022/03/08 07:48:35;;;;;;;15.37;8.47;;;;;;;2.38;54.69;102106.91;5014207;28;20347;-41
2022/03/08 07:51:08;;;;;;;11.40;8.13;;;;;;;2.44;54.58;102110.88;5000228;28;20292;-39
2022/03/08 07:53:34;;;;;;;12.73;8.20;;;;;;;2.57;54.09;102103.53;4980336;28;20049;-45
2022/03/08 07:59:04;;;;;;;14.27;8.60;;;;;;;2.88;53.06;102106.28;5048504;22;20064;-37
2022/03/08 08:01:33;;;;;;;12.50;8.73;;;;;;;2.93;53.11;102108.59;5040025;28;20039;-41
2022/03/08 08:04:00;;;;;;;12.77;8.20;;;;;;;3.03;52.80;102109.50;5038291;28;20040;-38
2022/03/08 08:06:28;;;;;;;13.17;8.50;;;;;;;3.19;52.26;102099.16;5058443;28;20040;-43
2022/03/08 08:08:57;;;;;;;12.23;8.10;;;;;;;3.35;51.74;102119.28;5027379;28;20102;-42
2022/03/08 08:11:28;;;;;;;13.47;8.07;;;;;;;3.40;51.18;102108.16;5035471;28;20044;-47
2022/03/08 08:13:59;;;;;;;12.60;8.23;;;;;;;3.47;50.99;102106.66;5060136;28;20713;-44
2022/03/08 08:16:28;;;;;;;11.13;7.90;;;;;;;3.65;50.59;102102.34;5057979;28;20066;-42
2022/03/08 08:18:59;;;;;;;11.30;7.83;;;;;;;3.72;49.73;102116.06;5021491;28;20279;-45
2022/03/08 08:21:27;;;;;;;10.83;7.77;;;;;;;3.77;49.51;102105.78;5056515;28;20032;-44
2022/03/08 08:23:55;;;;;;;12.37;7.47;;;;;;;3.93;49.54;102109.75;5057126;28;20642;-43
2022/03/08 08:26:27;;;;;;;11.93;7.53;;;;;;;4.05;49.19;102114.03;5036884;28;20036;-41
2022/03/08 08:28:55;;;;;;;12.70;8.10;;;;;;;4.13;49.30;102110.66;5037565;28;20037;-47
2022/03/08 08:31:23;;;;;;;10.70;6.97;;;;;;;4.29;48.57;102115.50;5022299;28;20127;-41
2022/03/08 08:33:50;;;;;;;10.27;7.70;;;;;;;4.28;48.52;102111.94;5053811;28;20047;-39
2022/03/08 08:36:17;;;;;;;11.57;7.50;;;;;;;4.31;48.54;102116.19;5056031;28;20059;-44
2022/03/08 08:38:43;;;;;;;9.37;7.63;;;;;;;4.42;47.32;102107.16;5056717;28;20391;-44
2022/03/08 08:41:12;;;;;;;12.80;7.40;;;;;;;4.39;47.50;102105.59;5037024;28;20044;-42
2022/03/08 08:43:40;;;;;;;9.93;6.80;;;;;;;4.56;46.85;102112.13;5016770;28;20052;-43
2022/03/08 08:46:12;;;;;;;10.90;7.00;;;;;;;4.64;47.21;102095.31;5036231;28;20033;-44
2022/03/08 08:48:39;;;;;;;10.53;7.50;;;;;;;4.65;46.69;102113.09;5036704;28;20058;-43
2022/03/08 08:51:06;;;;;;;9.97;7.37;;;;;;;4.77;47.40;102120.03;5019502;28;20048;-41
2022/03/08 08:53:36;;;;;;;11.00;7.60;;;;;;;4.84;47.29;102105.06;4996989;28;20036;-41
2022/03/08 08:56:07;;;;;;;12.43;7.10;;;;;;;5.05;46.16;102109.41;5016180;28;20459;-47
2022/03/08 08:58:37;;;;;;;11.67;6.87;;;;;;;5.17;46.19;102108.25;5038097;28;20079;-45
2022/03/08 09:01:12;;;;;;;10.27;6.90;;;;;;;5.46;46.33;102112.69;5016438;28;20048;-46
2022/03/08 09:03:45;;;;;;;9.27;6.70;;;;;;;5.52;45.03;102095.97;5058505;28;20076;-42
2022/03/08 09:06:15;;;;;;;13.43;7.10;;;;;;;5.64;45.34;102098.47;5021195;28;20041;-39
2022/03/08 09:08:44;;;;;;;13.87;7.43;;;;;;;5.70;45.40;102105.94;5037722;28;20555;-38
2022/03/08 09:11:12;;;;;;;11.67;7.07;;;;;;;5.86;45.10;102089.16;5035124;28;20044;-41
2022/03/08 09:13:39;;;;;;;10.13;6.57;;;;;;;5.96;43.88;102095.31;5029175;28;20114;-43
2022/03/08 09:16:06;;;;;;;12.03;6.67;;;;;;;6.01;43.02;102092.22;5020178;28;20036;-42
2022/03/08 09:18:40;;;;;;;12.77;6.87;;;;;;;5.96;43.17;102087.25;5038666;28;20037;-40
2022/03/08 09:21:20;;;;;;;15.60;7.40;;;;;;;6.02;43.84;102089.38;5040745;28;20048;-43
2022/03/08 09:23:58;;;;;;;13.10;7.10;;;;;;;6.23;42.97;102089.09;5058730;28;20056;-41
2022/03/08 09:26:30;;;;;;;10.63;6.60;;;;;;;6.35;43.42;102087.03;5024969;28;20052;-40
2022/03/08 09:28:57;;;;;;;10.63;6.80;;;;;;;6.52;43.03;102082.63;5024512;28;20029;-41
2022/03/08 09:31:26;;;;;;;11.57;6.83;;;;;;;6.63;42.78;102072.63;5037800;28;20045;-40
2022/03/08 09:33:56;;;;;;;11.33;6.13;;;;;;;6.62;41.25;102079.03;5049316;28;20028;-39
2022/03/08 09:36:27;;;;;;;10.50;6.83;;;;;;;6.56;41.36;102064.34;5005158;28;20492;-41
2022/03/08 09:39:07;;;;;;;9.23;6.43;;;;;;;6.57;41.30;102074.09;5023062;28;20028;-41
2022/03/08 09:41:37;;;;;;;9.77;6.63;;;;;;;6.60;41.90;102054.94;5024708;28;20131;-40
2022/03/08 09:44:05;;;;;;;11.17;6.73;;;;;;;6.83;41.54;102073.31;5030831;28;20124;-43
2022/03/08 09:46:33;;;;;;;10.73;7.30;;;;;;;6.92;40.97;102073.19;5051455;28;20256;-44
2022/03/08 09:49:02;;;;;;;11.90;6.77;;;;;;;6.81;40.51;102049.19;5035333;28;20028;-44
2022/03/08 09:51:48;;;;;;;11.77;6.83;;;;;;;6.93;41.18;102068.66;5004340;28;20363;-44
2022/03/08 09:54:34;;;;;;;10.73;6.80;;;;;;;6.79;41.07;102050.38;5037251;28;20039;-41
2022/03/08 09:57:15;;;;;;;10.43;7.10;;;;;;;6.91;41.34;102066.13;5037092;28;20048;-46
2022/03/08 10:00:06;;;;;;;9.20;5.80;;;;;;;6.95;40.52;102049.63;5059788;28;20483;-40
2022/03/08 10:02:53;;;;;;;10.57;6.27;;;;;;;7.03;40.96;102037.06;5056030;28;20159;-43
2022/03/08 10:05:25;;;;;;;10.43;7.20;;;;;;;7.29;40.53;102046.13;5034095;28;20040;-45
2022/03/08 10:08:13;;;;;;;11.53;6.70;;;;;;;7.37;39.74;102054.25;5029339;28;20100;-43
2022/03/08 10:10:49;;;;;;;10.23;6.13;;;;;;;7.30;39.36;102043.25;5032781;28;20269;-44
2022/03/08 10:13:17;;;;;;;13.37;6.83;;;;;;;7.47;39.81;102044.19;5034336;28;20040;-40
2022/03/08 10:16:04;;;;;;;9.93;7.03;;;;;;;7.79;39.29;102037.22;5035566;28;20044;-43
2022/03/08 10:18:47;;;;;;;7.90;6.10;;;;;;;7.68;38.66;102030.28;5035049;28;20044;-43
2022/03/08 10:21:30;;;;;;;13.38;6.22;;;;;;;7.69;38.29;102037.38;5054400;28;20156;-39
2022/03/08 10:24:24;;;;;;;10.50;7.37;;;;;;;7.84;38.46;102024.09;5054188;28;20564;-40
2022/03/08 10:26:57;;;;;;;11.03;6.67;;;;;;;8.10;39.31;102023.13;5032558;28;20052;-45
2022/03/08 10:29:27;;;;;;;9.90;6.47;;;;;;;8.27;37.50;102029.41;5034936;28;20064;-41
2022/03/08 10:32:28;;;;;;;14.17;8.13;;;;;;;8.51;37.99;102015.06;5058432;28;20448;-39
2022/03/08 10:35:02;;;;;;;9.90;7.07;;;;;;;8.33;37.01;102019.78;4994894;28;20057;-40
2022/03/08 10:37:38;;;;;;;11.90;6.13;;;;;;;8.55;36.81;102021.81;5053190;28;20078;-41
2022/03/08 10:40:08;;;;;;;8.30;5.50;;;;;;;8.61;35.60;102015.75;5035245;28;20034;-38
2022/03/08 10:42:40;;;;;;;7.47;5.50;;;;;;;8.80;35.45;102019.13;5054234;28;20520;-41
2022/03/08 10:45:13;;;;;;;10.03;6.00;;;;;;;8.82;35.35;102017.06;5012845;28;20178;-42
2022/03/08 10:47:50;;;;;;;9.10;5.50;;;;;;;9.00;34.42;102019.56;5052793;28;20060;-39
2022/03/08 10:50:18;;;;;;;7.27;5.43;;;;;;;8.90;33.91;102010.81;5034351;28;21591;-41
2022/03/08 10:52:49;;;;;;;9.33;5.73;;;;;;;8.81;34.28;102009.97;5037491;28;20479;-41
2022/03/08 10:55:52;;;;;;;9.43;5.40;;;;;;;8.84;35.00;101990.75;5053033;28;20041;-40
2022/03/08 10:58:20;;;;;;;10.87;5.40;;;;;;;8.90;34.96;102003.53;5036963;28;20569;-42
2022/03/08 11:01:10;;;;;;;12.83;6.90;;;;;;;9.19;35.08;101993.16;5012906;28;20417;-40
2022/03/08 11:03:37;;;;;;;10.33;5.40;;;;;;;9.29;33.38;102002.75;5034042;28;20024;-39
2022/03/08 11:06:07;;;;;;;11.47;5.53;;;;;;;9.21;33.58;102004.66;5028323;28;20167;-39
2022/03/08 11:08:37;;;;;;;11.83;5.40;;;;;;;9.21;34.03;101994.69;5037041;28;20476;-42
2022/03/08 11:11:10;;;;;;;8.43;5.50;;;;;;;9.53;34.37;101976.59;5020227;28;20132;-39
2022/03/08 11:13:47;;;;;;;9.50;5.60;;;;;;;9.66;32.54;101992.28;5054362;28;20137;-31
2022/03/08 11:16:18;;;;;;;9.23;5.60;;;;;;;9.80;31.62;101996.09;5051701;28;20046;-23
2022/03/08 11:18:54;;;;;;;11.37;5.53;;;;;;;9.88;31.39;101981.66;5034172;28;20479;-23
2022/03/08 11:21:24;;;;;;;12.20;6.00;;;;;;;10.20;32.29;101996.84;5052824;28;20033;-23
2022/03/08 11:23:56;;;;;;;9.23;5.30;;;;;;;10.35;31.38;101988.78;5035232;28;20032;-23
2022/03/08 11:26:32;;;;;;;10.23;5.90;;;;;;;10.31;31.31;101992.88;5048522;28;20053;-24
2022/03/08 11:29:10;;;;;;;8.90;5.10;;;;;;;10.64;31.40;101998.84;5052747;28;20041;-23
2022/03/08 11:31:48;;;;;;;13.13;5.50;;;;;;;10.67;31.10;101991.38;5055118;28;20075;-29
2022/03/08 12:57:54;;;;;;;11.13;5.30;;;;;;;12.74;27.06;101914.09;5059521;22;20072;-23
2022/03/08 13:00:30;;;;;;;10.03;5.20;;;;;;;12.47;26.77;101916.63;5060877;28;20064;-23